Star Lake, WI (54561)

1:13 PM CDT on July 24, 2016 (GMT -0500)
Plum Lake - Pinney Woods | | Change Station

Elev 1726 ft 46.01 °N, 89.53 °W | Updated 15 seconds ago

Mostly Cloudy
Mostly Cloudy
79.3 °F
Feels Like 82 °F
N
0.0
Wind Variable Wind from North
Gusts 0.0 mph

Today
High -- | Low -- °F
--% Chance of Precip.
Yesterday
High -- | Low -- °F
Precip. -- in
Pressure 29.83 in
Visibility 10.0 miles
Clouds Scattered Clouds 1800 ft
Mostly Cloudy 2600 ft
Mostly Cloudy 3200 ft
Heat Index 82 °F
Dew Point 71 °F
Humidity 76%
Rainfall 0.17 in
Snow Depth Not available.
5:31 AM 8:36 PM
Waning Gibbous, 74% visible
METAR KEGV 241755Z AUTO 23010KT 10SM SCT018 BKN026 BKN032 25/20 A2983 RMK AO2 T02490197 10249 20192
Pressure 29.83 in
Visibility 10.0 miles
Clouds Scattered Clouds 1800 ft
Mostly Cloudy 2600 ft
Mostly Cloudy 3200 ft
Heat Index 82 °F
Dew Point 71 °F
Humidity 76%
Rainfall 0.17 in
Snow Depth Not available.
5:31 AM 8:36 PM
Waning Gibbous, 74% visible
METAR KEGV 241755Z AUTO 23010KT 10SM SCT018 BKN026 BKN032 25/20 A2983 RMK AO2 T02490197 10249 20192

10-Day Weather Forecast

Almanac

Astronomy

Jul. 24, 2016 Rise Set
Actual Time
Civil Twilight
Nautical Twilight
Astronomical Twilight
Moon
Length of Visible Light
Length of Day
Tomorrow will be .
, % of the Moon is Illuminated

Today's Extremes

State Highs State Lows

Community

WunderPhotos

Upload Photos

1,927,143 photos uploaded!

WunderBlog® & News

Nearby

Air Quality

  Air Quality AQ Index Pollutant
Not available.

Snow Depth

Station Depth Elevation

Earthquake Activity

City Distance Mag. Time & Date
Minimum magnitude displayed is 2.5.

Coastal Water Temperatures

Place Temperature

Stations

Nearby Weather Stations

Station Location Temp. Windchill Dew Point Humidity Wind Precip. Elev Updated Type
                   

Watches & Warnings

There are currently no watches in effect.